Aérodrome :
LOGIN :

S'inscrire | Disclaimer

   EN    FR    IT 

 










Légende :    VFR   VFR Marginal   IFR   IFR Intensif   IFR Très Intensif
Visi : 
Plafond : 
>= 8 km
>= 3000ft
5 à 8 km
1000 à 3000 ft
1500m à 5 km
500 à 1000 ft
800 à 1500m
200 à 500 ft
< 800m
< 200 ft
Symboles :   Orages  Brouillard  Fortes neiges  Fortes précipitations  Vent > 20 kt
SIGMETs :   Divers  Orages  Givrage  Turbulence  Onde Orograph.  Cendres Volcan.






- Altitude de l'aérodrome : 1910 ft
- Code IATA : RDZ


LFCR - Rodez

DERNIER METAR :
  • 230700Z AUTO 33004KT CAVOK 17/14 Q1024 NOSIG

METARs EXPIRÉS :
  • 230630Z AUTO 36004KT CAVOK 16/14 Q1024 NOSIG
  • 230600Z AUTO 31003KT 270V360 CAVOK 15/14 Q1024 NOSIG
  • 230530Z AUTO 31002KT CAVOK 14/14 Q1024 NOSIG
  • 230500Z AUTO 30003KT CAVOK 13/12 Q1024 NOSIG
  • 230430Z AUTO 31003KT CAVOK 13/13 Q1024 NOSIG
  • 230400Z AUTO 30004KT CAVOK 12/12 Q1023 NOSIG
  • 230330Z AUTO 32004KT CAVOK 13/12 Q1023 NOSIG
  • 230300Z AUTO 30006KT CAVOK 12/12 Q1023 NOSIG
  • 230230Z AUTO 30006KT CAVOK 12/12 Q1023 NOSIG

TAF TAF LFCR
Valide du 23 à 06h jusqu'au 24 à 06h UTC


230500Z 2306/2406 32004KT CAVOK
TEMPO 2402/2406 VRB03KT



MET'MAP, la Météo Aéronautique d'un coup d'oeil ! - Copyright ORBIFLY Décembre 2007 - Disclaimer

ORBIFLY MET'MAP TEAM :

Programmation & Développement : Alexandra Zaïnal
Sur une idée originale de : Baudouin d'Aumeries
Soutien technique & logistique : Manuel Goepfert
Assistance : Marc-Olivier Méhu




SOURCES & CREDITS :

   NOAA